sensor_id;sensor_type;location;lat;lon;timestamp;P1;durP1;ratioP1;P2;durP2;ratioP2
76115;SDS011;64847;45.778;12.802;2023-11-19T00:00:26;4.53;;;4.13;;
76115;SDS011;64847;45.778;12.802;2023-11-19T00:02:51;4.27;;;3.87;;
76115;SDS011;64847;45.778;12.802;2023-11-19T00:05:17;4.63;;;4.23;;
76115;SDS011;64847;45.778;12.802;2023-11-19T00:07:43;8.90;;;4.30;;
76115;SDS011;64847;45.778;12.802;2023-11-19T00:10:10;4.63;;;4.20;;
76115;SDS011;64847;45.778;12.802;2023-11-19T00:12:43;3.97;;;3.67;;
76115;SDS011;64847;45.778;12.802;2023-11-19T00:15:10;4.37;;;3.97;;
76115;SDS011;64847;45.778;12.802;2023-11-19T00:17:39;5.17;;;3.77;;
76115;SDS011;64847;45.778;12.802;2023-11-19T00:20:16;3.60;;;3.30;;
76115;SDS011;64847;45.778;12.802;2023-11-19T00:22:42;4.70;;;4.30;;
76115;SDS011;64847;45.778;12.802;2023-11-19T00:25:08;4.47;;;4.00;;
76115;SDS011;64847;45.778;12.802;2023-11-19T00:27:34;4.40;;;4.00;;
76115;SDS011;64847;45.778;12.802;2023-11-19T00:30:00;4.03;;;3.63;;
76115;SDS011;64847;45.778;12.802;2023-11-19T00:32:26;4.50;;;3.97;;
76115;SDS011;64847;45.778;12.802;2023-11-19T00:34:51;3.77;;;3.47;;
76115;SDS011;64847;45.778;12.802;2023-11-19T00:37:17;3.50;;;3.20;;
76115;SDS011;64847;45.778;12.802;2023-11-19T00:39:42;4.03;;;3.50;;
76115;SDS011;64847;45.778;12.802;2023-11-19T00:42:08;3.87;;;3.57;;
76115;SDS011;64847;45.778;12.802;2023-11-19T00:44:35;3.80;;;3.50;;
76115;SDS011;64847;45.778;12.802;2023-11-19T00:47:01;3.67;;;3.37;;
76115;SDS011;64847;45.778;12.802;2023-11-19T00:49:26;3.43;;;3.13;;
76115;SDS011;64847;45.778;12.802;2023-11-19T00:51:52;3.90;;;3.40;;
76115;SDS011;64847;45.778;12.802;2023-11-19T00:54:17;3.80;;;3.50;;
76115;SDS011;64847;45.778;12.802;2023-11-19T00:56:43;3.60;;;3.30;;
76115;SDS011;64847;45.778;12.802;2023-11-19T00:59:09;3.50;;;3.20;;
76115;SDS011;64847;45.778;12.802;2023-11-19T01:01:35;3.57;;;3.10;;
76115;SDS011;64847;45.778;12.802;2023-11-19T01:04:01;3.60;;;3.30;;
76115;SDS011;64847;45.778;12.802;2023-11-19T01:06:28;3.33;;;3.03;;
76115;SDS011;64847;45.778;12.802;2023-11-19T01:08:55;3.70;;;3.40;;
76115;SDS011;64847;45.778;12.802;2023-11-19T01:11:21;2.87;;;2.67;;
76115;SDS011;64847;45.778;12.802;2023-11-19T01:13:48;3.23;;;3.03;;
76115;SDS011;64847;45.778;12.802;2023-11-19T01:16:13;3.30;;;3.00;;
76115;SDS011;64847;45.778;12.802;2023-11-19T01:18:39;3.40;;;3.10;;
76115;SDS011;64847;45.778;12.802;2023-11-19T01:21:04;3.10;;;2.90;;
76115;SDS011;64847;45.778;12.802;2023-11-19T01:23:30;3.10;;;2.90;;
76115;SDS011;64847;45.778;12.802;2023-11-19T01:25:55;3.37;;;3.07;;
76115;SDS011;64847;45.778;12.802;2023-11-19T01:28:21;3.20;;;2.90;;
76115;SDS011;64847;45.778;12.802;2023-11-19T01:30:46;3.77;;;3.47;;
76115;SDS011;64847;45.778;12.802;2023-11-19T01:33:12;3.13;;;2.83;;
76115;SDS011;64847;45.778;12.802;2023-11-19T01:35:37;3.17;;;2.87;;
76115;SDS011;64847;45.778;12.802;2023-11-19T01:38:02;2.83;;;2.63;;
76115;SDS011;64847;45.778;12.802;2023-11-19T01:40:28;3.57;;;3.27;;
76115;SDS011;64847;45.778;12.802;2023-11-19T01:42:53;3.30;;;3.00;;
76115;SDS011;64847;45.778;12.802;2023-11-19T01:45:37;3.77;;;3.30;;
76115;SDS011;64847;45.778;12.802;2023-11-19T01:48:04;3.33;;;2.93;;
76115;SDS011;64847;45.778;12.802;2023-11-19T01:50:30;4.17;;;3.07;;
76115;SDS011;64847;45.778;12.802;2023-11-19T01:52:57;2.67;;;2.47;;
76115;SDS011;64847;45.778;12.802;2023-11-19T01:55:23;4.33;;;3.13;;
76115;SDS011;64847;45.778;12.802;2023-11-19T01:57:49;2.97;;;2.77;;
76115;SDS011;64847;45.778;12.802;2023-11-19T02:00:16;3.20;;;2.90;;
76115;SDS011;64847;45.778;12.802;2023-11-19T02:02:42;3.10;;;2.80;;
76115;SDS011;64847;45.778;12.802;2023-11-19T02:05:12;3.60;;;3.07;;
76115;SDS011;64847;45.778;12.802;2023-11-19T02:07:41;4.73;;;3.00;;
76115;SDS011;64847;45.778;12.802;2023-11-19T02:10:08;3.20;;;2.90;;
76115;SDS011;64847;45.778;12.802;2023-11-19T02:12:38;2.93;;;2.73;;
76115;SDS011;64847;45.778;12.802;2023-11-19T02:15:08;2.90;;;2.70;;
76115;SDS011;64847;45.778;12.802;2023-11-19T02:17:34;2.90;;;2.70;;
76115;SDS011;64847;45.778;12.802;2023-11-19T02:20:02;2.97;;;2.77;;
76115;SDS011;64847;45.778;12.802;2023-11-19T02:22:28;2.93;;;2.73;;
76115;SDS011;64847;45.778;12.802;2023-11-19T02:24:55;3.10;;;2.80;;
76115;SDS011;64847;45.778;12.802;2023-11-19T02:30:26;3.50;;;2.80;;
76115;SDS011;64847;45.778;12.802;2023-11-19T02:33:00;3.20;;;2.90;;
76115;SDS011;64847;45.778;12.802;2023-11-19T02:35:30;3.40;;;2.70;;
76115;SDS011;64847;45.778;12.802;2023-11-19T02:37:56;3.07;;;2.83;;
76115;SDS011;64847;45.778;12.802;2023-11-19T02:40:23;3.00;;;2.80;;
76115;SDS011;64847;45.778;12.802;2023-11-19T02:42:52;2.93;;;2.73;;
76115;SDS011;64847;45.778;12.802;2023-11-19T02:45:18;2.83;;;2.63;;
76115;SDS011;64847;45.778;12.802;2023-11-19T02:47:44;3.00;;;2.80;;
76115;SDS011;64847;45.778;12.802;2023-11-19T02:50:12;2.87;;;2.67;;
76115;SDS011;64847;45.778;12.802;2023-11-19T02:52:44;2.73;;;2.50;;
76115;SDS011;64847;45.778;12.802;2023-11-19T02:55:10;4.20;;;3.10;;
76115;SDS011;64847;45.778;12.802;2023-11-19T02:57:37;2.87;;;2.67;;
76115;SDS011;64847;45.778;12.802;2023-11-19T03:00:06;3.37;;;3.00;;
76115;SDS011;64847;45.778;12.802;2023-11-19T03:02:38;3.30;;;3.00;;
76115;SDS011;64847;45.778;12.802;2023-11-19T03:05:09;2.80;;;2.60;;
76115;SDS011;64847;45.778;12.802;2023-11-19T03:07:36;2.90;;;2.70;;
76115;SDS011;64847;45.778;12.802;2023-11-19T03:10:01;3.17;;;2.90;;
76115;SDS011;64847;45.778;12.802;2023-11-19T03:12:27;2.73;;;2.53;;
76115;SDS011;64847;45.778;12.802;2023-11-19T03:14:52;3.10;;;2.80;;
76115;SDS011;64847;45.778;12.802;2023-11-19T03:17:19;3.17;;;2.87;;
76115;SDS011;64847;45.778;12.802;2023-11-19T03:19:44;3.33;;;3.03;;
76115;SDS011;64847;45.778;12.802;2023-11-19T03:22:10;3.87;;;2.93;;
76115;SDS011;64847;45.778;12.802;2023-11-19T03:24:36;3.00;;;2.70;;
76115;SDS011;64847;45.778;12.802;2023-11-19T03:27:01;3.27;;;2.97;;
76115;SDS011;64847;45.778;12.802;2023-11-19T03:29:27;4.13;;;2.90;;
76115;SDS011;64847;45.778;12.802;2023-11-19T03:31:53;3.07;;;2.87;;
76115;SDS011;64847;45.778;12.802;2023-11-19T03:34:19;2.87;;;2.60;;
76115;SDS011;64847;45.778;12.802;2023-11-19T03:36:44;3.63;;;3.27;;
76115;SDS011;64847;45.778;12.802;2023-11-19T03:39:10;3.90;;;3.10;;
76115;SDS011;64847;45.778;12.802;2023-11-19T03:41:36;3.07;;;2.77;;
76115;SDS011;64847;45.778;12.802;2023-11-19T03:44:01;3.73;;;2.70;;
76115;SDS011;64847;45.778;12.802;2023-11-19T03:46:26;3.23;;;3.03;;
76115;SDS011;64847;45.778;12.802;2023-11-19T03:48:52;3.20;;;3.00;;
76115;SDS011;64847;45.778;12.802;2023-11-19T03:51:17;2.87;;;2.67;;
76115;SDS011;64847;45.778;12.802;2023-11-19T03:53:46;3.17;;;2.90;;
76115;SDS011;64847;45.778;12.802;2023-11-19T03:56:11;3.00;;;2.80;;
76115;SDS011;64847;45.778;12.802;2023-11-19T03:58:38;2.90;;;2.70;;
76115;SDS011;64847;45.778;12.802;2023-11-19T04:01:04;2.73;;;2.47;;
76115;SDS011;64847;45.778;12.802;2023-11-19T04:03:30;2.87;;;2.63;;
76115;SDS011;64847;45.778;12.802;2023-11-19T04:05:55;3.23;;;2.97;;
76115;SDS011;64847;45.778;12.802;2023-11-19T04:08:21;3.07;;;2.77;;
76115;SDS011;64847;45.778;12.802;2023-11-19T04:10:47;2.77;;;2.57;;
76115;SDS011;64847;45.778;12.802;2023-11-19T04:13:12;3.20;;;2.90;;
76115;SDS011;64847;45.778;12.802;2023-11-19T04:15:37;2.90;;;2.70;;
76115;SDS011;64847;45.778;12.802;2023-11-19T04:18:03;2.97;;;2.77;;
76115;SDS011;64847;45.778;12.802;2023-11-19T04:20:28;3.00;;;2.80;;
76115;SDS011;64847;45.778;12.802;2023-11-19T04:22:54;3.00;;;2.73;;
76115;SDS011;64847;45.778;12.802;2023-11-19T04:25:19;2.70;;;2.50;;
76115;SDS011;64847;45.778;12.802;2023-11-19T04:27:44;2.73;;;2.53;;
76115;SDS011;64847;45.778;12.802;2023-11-19T04:30:11;2.77;;;2.57;;
76115;SDS011;64847;45.778;12.802;2023-11-19T04:32:36;2.53;;;2.37;;
76115;SDS011;64847;45.778;12.802;2023-11-19T04:35:02;2.70;;;2.50;;
76115;SDS011;64847;45.778;12.802;2023-11-19T04:37:28;2.23;;;2.13;;
76115;SDS011;64847;45.778;12.802;2023-11-19T04:39:55;2.27;;;2.17;;
76115;SDS011;64847;45.778;12.802;2023-11-19T04:42:23;2.80;;;2.60;;
76115;SDS011;64847;45.778;12.802;2023-11-19T04:44:49;2.77;;;2.47;;
76115;SDS011;64847;45.778;12.802;2023-11-19T04:47:14;2.50;;;2.30;;
76115;SDS011;64847;45.778;12.802;2023-11-19T04:49:40;2.33;;;2.23;;
76115;SDS011;64847;45.778;12.802;2023-11-19T04:52:09;2.50;;;2.30;;
76115;SDS011;64847;45.778;12.802;2023-11-19T04:54:34;2.53;;;2.33;;
76115;SDS011;64847;45.778;12.802;2023-11-19T04:57:00;2.73;;;2.53;;
76115;SDS011;64847;45.778;12.802;2023-11-19T04:59:25;2.27;;;2.17;;
76115;SDS011;64847;45.778;12.802;2023-11-19T05:01:52;2.20;;;2.10;;
76115;SDS011;64847;45.778;12.802;2023-11-19T05:04:18;2.67;;;2.40;;
76115;SDS011;64847;45.778;12.802;2023-11-19T05:06:44;2.77;;;2.57;;
76115;SDS011;64847;45.778;12.802;2023-11-19T05:09:09;2.43;;;2.27;;
76115;SDS011;64847;45.778;12.802;2023-11-19T05:11:38;2.50;;;2.30;;
76115;SDS011;64847;45.778;12.802;2023-11-19T05:14:04;2.63;;;2.43;;
76115;SDS011;64847;45.778;12.802;2023-11-19T05:16:29;2.60;;;2.40;;
76115;SDS011;64847;45.778;12.802;2023-11-19T05:18:55;2.30;;;2.20;;
76115;SDS011;64847;45.778;12.802;2023-11-19T05:21:20;2.23;;;2.03;;
76115;SDS011;64847;45.778;12.802;2023-11-19T05:23:46;2.10;;;2.00;;
76115;SDS011;64847;45.778;12.802;2023-11-19T05:26:18;2.20;;;2.10;;
76115;SDS011;64847;45.778;12.802;2023-11-19T05:28:44;2.50;;;2.30;;
76115;SDS011;64847;45.778;12.802;2023-11-19T05:31:10;2.13;;;2.00;;
76115;SDS011;64847;45.778;12.802;2023-11-19T05:33:35;2.00;;;1.90;;
76115;SDS011;64847;45.778;12.802;2023-11-19T05:36:01;2.70;;;2.40;;
76115;SDS011;64847;45.778;12.802;2023-11-19T05:38:28;2.73;;;2.03;;
76115;SDS011;64847;45.778;12.802;2023-11-19T05:40:54;2.40;;;2.20;;
76115;SDS011;64847;45.778;12.802;2023-11-19T05:43:19;3.60;;;2.33;;
76115;SDS011;64847;45.778;12.802;2023-11-19T05:45:46;2.97;;;2.67;;
76115;SDS011;64847;45.778;12.802;2023-11-19T05:48:12;2.53;;;2.33;;
76115;SDS011;64847;45.778;12.802;2023-11-19T05:50:38;3.00;;;2.30;;
76115;SDS011;64847;45.778;12.802;2023-11-19T05:53:03;2.60;;;2.40;;
76115;SDS011;64847;45.778;12.802;2023-11-19T05:55:33;2.17;;;2.07;;
76115;SDS011;64847;45.778;12.802;2023-11-19T05:57:59;2.57;;;2.37;;
76115;SDS011;64847;45.778;12.802;2023-11-19T06:00:24;2.93;;;2.13;;
76115;SDS011;64847;45.778;12.802;2023-11-19T06:02:51;2.20;;;2.00;;
76115;SDS011;64847;45.778;12.802;2023-11-19T06:05:17;2.20;;;2.00;;
76115;SDS011;64847;45.778;12.802;2023-11-19T06:07:43;2.43;;;2.20;;
76115;SDS011;64847;45.778;12.802;2023-11-19T06:10:09;2.20;;;2.10;;
76115;SDS011;64847;45.778;12.802;2023-11-19T06:12:35;2.60;;;2.40;;
76115;SDS011;64847;45.778;12.802;2023-11-19T06:15:04;2.00;;;1.90;;
76115;SDS011;64847;45.778;12.802;2023-11-19T06:17:30;2.33;;;2.07;;
76115;SDS011;64847;45.778;12.802;2023-11-19T06:19:55;2.20;;;2.00;;
76115;SDS011;64847;45.778;12.802;2023-11-19T06:22:21;1.90;;;1.80;;
76115;SDS011;64847;45.778;12.802;2023-11-19T06:24:46;1.93;;;1.83;;
76115;SDS011;64847;45.778;12.802;2023-11-19T06:27:12;1.90;;;1.80;;
76115;SDS011;64847;45.778;12.802;2023-11-19T06:29:38;2.10;;;2.00;;
76115;SDS011;64847;45.778;12.802;2023-11-19T06:32:05;1.90;;;1.80;;
76115;SDS011;64847;45.778;12.802;2023-11-19T06:34:31;2.23;;;2.10;;
76115;SDS011;64847;45.778;12.802;2023-11-19T06:36:58;2.30;;;2.20;;
76115;SDS011;64847;45.778;12.802;2023-11-19T06:39:23;2.07;;;1.97;;
76115;SDS011;64847;45.778;12.802;2023-11-19T06:41:48;2.73;;;2.00;;
76115;SDS011;64847;45.778;12.802;2023-11-19T06:44:14;2.40;;;2.20;;
76115;SDS011;64847;45.778;12.802;2023-11-19T06:46:39;2.40;;;2.23;;
76115;SDS011;64847;45.778;12.802;2023-11-19T06:49:05;2.10;;;2.00;;
76115;SDS011;64847;45.778;12.802;2023-11-19T06:51:32;1.93;;;1.83;;
76115;SDS011;64847;45.778;12.802;2023-11-19T06:53:58;2.40;;;2.20;;
76115;SDS011;64847;45.778;12.802;2023-11-19T06:56:24;2.27;;;2.07;;
76115;SDS011;64847;45.778;12.802;2023-11-19T06:58:50;1.90;;;1.80;;
76115;SDS011;64847;45.778;12.802;2023-11-19T07:01:16;2.00;;;1.90;;
76115;SDS011;64847;45.778;12.802;2023-11-19T07:03:44;2.33;;;2.13;;
76115;SDS011;64847;45.778;12.802;2023-11-19T07:06:10;4.03;;;2.20;;
76115;SDS011;64847;45.778;12.802;2023-11-19T07:08:35;1.63;;;1.53;;
76115;SDS011;64847;45.778;12.802;2023-11-19T07:11:01;2.10;;;1.90;;
76115;SDS011;64847;45.778;12.802;2023-11-19T07:13:27;2.10;;;2.00;;
76115;SDS011;64847;45.778;12.802;2023-11-19T07:15:53;2.07;;;1.97;;
76115;SDS011;64847;45.778;12.802;2023-11-19T07:18:20;2.00;;;1.90;;
76115;SDS011;64847;45.778;12.802;2023-11-19T07:20:47;2.27;;;2.17;;
76115;SDS011;64847;45.778;12.802;2023-11-19T07:23:13;2.20;;;2.10;;
76115;SDS011;64847;45.778;12.802;2023-11-19T07:25:39;2.03;;;1.93;;
76115;SDS011;64847;45.778;12.802;2023-11-19T07:28:05;2.40;;;2.30;;
76115;SDS011;64847;45.778;12.802;2023-11-19T07:30:31;2.30;;;2.20;;
76115;SDS011;64847;45.778;12.802;2023-11-19T07:32:56;2.37;;;2.17;;
76115;SDS011;64847;45.778;12.802;2023-11-19T07:35:22;2.60;;;2.40;;
76115;SDS011;64847;45.778;12.802;2023-11-19T07:37:47;2.60;;;2.40;;
76115;SDS011;64847;45.778;12.802;2023-11-19T07:40:15;2.10;;;2.00;;
76115;SDS011;64847;45.778;12.802;2023-11-19T07:42:40;2.00;;;1.90;;
76115;SDS011;64847;45.778;12.802;2023-11-19T07:45:06;2.00;;;1.90;;
76115;SDS011;64847;45.778;12.802;2023-11-19T07:47:32;2.10;;;2.00;;
76115;SDS011;64847;45.778;12.802;2023-11-19T07:49:57;2.03;;;1.93;;
76115;SDS011;64847;45.778;12.802;2023-11-19T07:52:23;2.50;;;2.30;;
76115;SDS011;64847;45.778;12.802;2023-11-19T07:54:48;2.28;;;2.17;;
76115;SDS011;64847;45.778;12.802;2023-11-19T07:57:13;2.40;;;1.95;;
76115;SDS011;64847;45.778;12.802;2023-11-19T07:59:39;2.60;;;1.88;;
76115;SDS011;64847;45.778;12.802;2023-11-19T08:02:05;2.22;;;2.00;;
76115;SDS011;64847;45.778;12.802;2023-11-19T08:04:30;2.35;;;2.25;;
76115;SDS011;64847;45.778;12.802;2023-11-19T08:06:56;2.10;;;2.00;;
76115;SDS011;64847;45.778;12.802;2023-11-19T08:09:21;2.37;;;2.17;;
76115;SDS011;64847;45.778;12.802;2023-11-19T08:11:48;2.00;;;1.90;;
76115;SDS011;64847;45.778;12.802;2023-11-19T08:14:13;1.97;;;1.80;;
76115;SDS011;64847;45.778;12.802;2023-11-19T08:16:39;2.00;;;1.90;;
76115;SDS011;64847;45.778;12.802;2023-11-19T08:19:05;2.13;;;2.00;;
76115;SDS011;64847;45.778;12.802;2023-11-19T08:21:30;2.13;;;2.03;;
76115;SDS011;64847;45.778;12.802;2023-11-19T08:23:56;2.20;;;2.10;;
76115;SDS011;64847;45.778;12.802;2023-11-19T08:26:21;2.13;;;2.03;;
76115;SDS011;64847;45.778;12.802;2023-11-19T08:28:46;2.10;;;2.00;;
76115;SDS011;64847;45.778;12.802;2023-11-19T08:31:12;2.03;;;1.93;;
76115;SDS011;64847;45.778;12.802;2023-11-19T08:33:38;2.23;;;2.13;;
76115;SDS011;64847;45.778;12.802;2023-11-19T08:36:03;1.80;;;1.70;;
76115;SDS011;64847;45.778;12.802;2023-11-19T08:38:29;1.63;;;1.53;;
76115;SDS011;64847;45.778;12.802;2023-11-19T08:40:55;2.00;;;1.90;;
76115;SDS011;64847;45.778;12.802;2023-11-19T08:43:25;2.30;;;2.20;;
76115;SDS011;64847;45.778;12.802;2023-11-19T08:45:51;2.43;;;2.23;;
76115;SDS011;64847;45.778;12.802;2023-11-19T08:48:16;2.10;;;2.00;;
76115;SDS011;64847;45.778;12.802;2023-11-19T08:50:42;2.30;;;2.15;;
76115;SDS011;64847;45.778;12.802;2023-11-19T08:53:07;2.13;;;2.03;;
76115;SDS011;64847;45.778;12.802;2023-11-19T08:55:32;2.40;;;2.30;;
76115;SDS011;64847;45.778;12.802;2023-11-19T08:57:58;2.33;;;2.22;;
76115;SDS011;64847;45.778;12.802;2023-11-19T09:00:23;2.35;;;2.22;;
76115;SDS011;64847;45.778;12.802;2023-11-19T09:02:49;2.50;;;2.40;;
76115;SDS011;64847;45.778;12.802;2023-11-19T09:05:14;2.47;;;2.33;;
76115;SDS011;64847;45.778;12.802;2023-11-19T09:07:39;2.17;;;2.08;;
76115;SDS011;64847;45.778;12.802;2023-11-19T09:10:05;2.22;;;2.10;;
76115;SDS011;64847;45.778;12.802;2023-11-19T09:12:31;2.38;;;2.17;;
76115;SDS011;64847;45.778;12.802;2023-11-19T09:14:56;2.22;;;2.08;;
76115;SDS011;64847;45.778;12.802;2023-11-19T09:17:21;2.03;;;1.92;;
76115;SDS011;64847;45.778;12.802;2023-11-19T09:19:47;1.90;;;1.80;;
76115;SDS011;64847;45.778;12.802;2023-11-19T09:22:12;2.05;;;1.95;;
76115;SDS011;64847;45.778;12.802;2023-11-19T09:24:38;2.15;;;1.90;;
76115;SDS011;64847;45.778;12.802;2023-11-19T09:27:03;2.20;;;2.10;;
76115;SDS011;64847;45.778;12.802;2023-11-19T09:29:31;2.20;;;2.10;;
76115;SDS011;64847;45.778;12.802;2023-11-19T09:31:57;2.05;;;1.95;;
76115;SDS011;64847;45.778;12.802;2023-11-19T09:34:22;2.00;;;1.90;;
76115;SDS011;64847;45.778;12.802;2023-11-19T09:36:48;2.05;;;1.95;;
76115;SDS011;64847;45.778;12.802;2023-11-19T09:39:13;2.30;;;2.20;;
76115;SDS011;64847;45.778;12.802;2023-11-19T09:41:43;7.00;;;2.20;;
76115;SDS011;64847;45.778;12.802;2023-11-19T09:44:10;2.40;;;2.20;;
76115;SDS011;64847;45.778;12.802;2023-11-19T09:46:36;2.53;;;2.17;;
76115;SDS011;64847;45.778;12.802;2023-11-19T09:49:03;2.10;;;2.00;;
76115;SDS011;64847;45.778;12.802;2023-11-19T09:51:29;2.60;;;2.17;;
76115;SDS011;64847;45.778;12.802;2023-11-19T09:53:55;2.47;;;2.28;;
76115;SDS011;64847;45.778;12.802;2023-11-19T09:56:21;2.03;;;1.92;;
76115;SDS011;64847;45.778;12.802;2023-11-19T09:58:47;2.30;;;2.10;;
76115;SDS011;64847;45.778;12.802;2023-11-19T10:01:12;2.25;;;2.15;;
76115;SDS011;64847;45.778;12.802;2023-11-19T10:03:38;2.40;;;2.28;;
76115;SDS011;64847;45.778;12.802;2023-11-19T10:06:08;2.30;;;2.20;;
76115;SDS011;64847;45.778;12.802;2023-11-19T10:08:36;1.95;;;1.85;;
76115;SDS011;64847;45.778;12.802;2023-11-19T10:11:02;2.13;;;2.03;;
76115;SDS011;64847;45.778;12.802;2023-11-19T10:13:28;2.00;;;1.90;;
76115;SDS011;64847;45.778;12.802;2023-11-19T10:15:55;1.70;;;1.60;;
76115;SDS011;64847;45.778;12.802;2023-11-19T10:18:25;1.85;;;1.80;;
76115;SDS011;64847;45.778;12.802;2023-11-19T10:20:51;2.10;;;2.00;;
76115;SDS011;64847;45.778;12.802;2023-11-19T10:23:17;1.77;;;1.67;;
76115;SDS011;64847;45.778;12.802;2023-11-19T10:25:42;1.98;;;1.88;;
76115;SDS011;64847;45.778;12.802;2023-11-19T10:28:08;1.77;;;1.77;;
76115;SDS011;64847;45.778;12.802;2023-11-19T10:30:33;2.13;;;2.03;;
76115;SDS011;64847;45.778;12.802;2023-11-19T10:33:03;2.30;;;2.20;;
76115;SDS011;64847;45.778;12.802;2023-11-19T10:35:32;2.20;;;2.10;;
76115;SDS011;64847;45.778;12.802;2023-11-19T10:37:59;2.10;;;2.00;;
76115;SDS011;64847;45.778;12.802;2023-11-19T10:40:37;2.00;;;1.90;;
76115;SDS011;64847;45.778;12.802;2023-11-19T10:43:03;1.95;;;1.85;;
76115;SDS011;64847;45.778;12.802;2023-11-19T10:45:28;2.30;;;2.20;;
76115;SDS011;64847;45.778;12.802;2023-11-19T10:47:54;2.30;;;2.20;;
76115;SDS011;64847;45.778;12.802;2023-11-19T10:50:20;1.90;;;1.80;;
76115;SDS011;64847;45.778;12.802;2023-11-19T10:52:46;1.92;;;1.83;;
76115;SDS011;64847;45.778;12.802;2023-11-19T10:55:12;2.05;;;1.95;;
76115;SDS011;64847;45.778;12.802;2023-11-19T10:57:40;2.20;;;2.10;;
76115;SDS011;64847;45.778;12.802;2023-11-19T11:00:09;2.03;;;1.92;;
76115;SDS011;64847;45.778;12.802;2023-11-19T11:02:39;2.03;;;1.92;;
76115;SDS011;64847;45.778;12.802;2023-11-19T11:05:07;2.08;;;1.98;;
76115;SDS011;64847;45.778;12.802;2023-11-19T11:07:33;2.15;;;2.05;;
76115;SDS011;64847;45.778;12.802;2023-11-19T11:09:59;2.08;;;1.98;;
76115;SDS011;64847;45.778;12.802;2023-11-19T11:12:25;2.33;;;2.22;;
76115;SDS011;64847;45.778;12.802;2023-11-19T11:14:51;2.10;;;2.00;;
76115;SDS011;64847;45.778;12.802;2023-11-19T11:17:18;2.28;;;2.17;;
76115;SDS011;64847;45.778;12.802;2023-11-19T11:19:44;2.15;;;2.05;;
76115;SDS011;64847;45.778;12.802;2023-11-19T11:22:10;2.20;;;2.10;;
76115;SDS011;64847;45.778;12.802;2023-11-19T11:30:22;2.20;;;2.10;;
76115;SDS011;64847;45.778;12.802;2023-11-19T11:32:57;2.20;;;2.10;;
76115;SDS011;64847;45.778;12.802;2023-11-19T11:38:13;2.50;;;2.40;;
76115;SDS011;64847;45.778;12.802;2023-11-19T11:40:39;2.95;;;2.75;;
76115;SDS011;64847;45.778;12.802;2023-11-19T11:43:09;2.70;;;2.60;;
76115;SDS011;64847;45.778;12.802;2023-11-19T11:46:09;2.47;;;2.38;;
76115;SDS011;64847;45.778;12.802;2023-11-19T11:48:57;2.85;;;2.67;;
76115;SDS011;64847;45.778;12.802;2023-11-19T11:54:09;2.40;;;2.30;;
76115;SDS011;64847;45.778;12.802;2023-11-19T11:56:38;2.40;;;2.30;;
76115;SDS011;64847;45.778;12.802;2023-11-19T11:59:19;2.30;;;2.20;;
76115;SDS011;64847;45.778;12.802;2023-11-19T12:01:57;2.47;;;2.30;;
76115;SDS011;64847;45.778;12.802;2023-11-19T12:04:25;2.53;;;2.42;;
76115;SDS011;64847;45.778;12.802;2023-11-19T12:07:02;2.97;;;2.78;;
76115;SDS011;64847;45.778;12.802;2023-11-19T12:09:32;2.80;;;2.60;;
76115;SDS011;64847;45.778;12.802;2023-11-19T12:22:40;2.30;;;2.20;;
76115;SDS011;64847;45.778;12.802;2023-11-19T12:25:07;2.50;;;2.40;;
76115;SDS011;64847;45.778;12.802;2023-11-19T12:28:00;2.35;;;2.20;;
76115;SDS011;64847;45.778;12.802;2023-11-19T12:30:29;2.38;;;2.28;;
76115;SDS011;64847;45.778;12.802;2023-11-19T12:32:55;2.90;;;2.70;;
76115;SDS011;64847;45.778;12.802;2023-11-19T12:35:20;3.10;;;2.90;;
76115;SDS011;64847;45.778;12.802;2023-11-19T12:37:46;3.08;;;2.83;;
76115;SDS011;64847;45.778;12.802;2023-11-19T12:40:18;2.90;;;2.70;;
76115;SDS011;64847;45.778;12.802;2023-11-19T12:42:47;3.42;;;3.13;;
76115;SDS011;64847;45.778;12.802;2023-11-19T12:45:13;3.67;;;3.38;;
76115;SDS011;64847;45.778;12.802;2023-11-19T12:47:39;3.85;;;3.55;;
76115;SDS011;64847;45.778;12.802;2023-11-19T12:50:08;3.25;;;3.05;;
76115;SDS011;64847;45.778;12.802;2023-11-19T12:52:35;2.83;;;2.63;;
76115;SDS011;64847;45.778;12.802;2023-11-19T12:55:01;3.10;;;2.90;;
76115;SDS011;64847;45.778;12.802;2023-11-19T12:57:37;4.00;;;3.65;;
76115;SDS011;64847;45.778;12.802;2023-11-19T13:00:06;3.90;;;3.60;;
76115;SDS011;64847;45.778;12.802;2023-11-19T13:02:55;3.42;;;3.22;;
76115;SDS011;64847;45.778;12.802;2023-11-19T13:05:25;3.88;;;3.20;;
76115;SDS011;64847;45.778;12.802;2023-11-19T13:10:28;4.82;;;3.83;;
76115;SDS011;64847;45.778;12.802;2023-11-19T13:13:07;3.47;;;3.20;;
76115;SDS011;64847;45.778;12.802;2023-11-19T13:15:35;3.38;;;3.17;;
76115;SDS011;64847;45.778;12.802;2023-11-19T13:18:02;3.70;;;3.40;;
76115;SDS011;64847;45.778;12.802;2023-11-19T13:20:28;3.50;;;3.23;;
76115;SDS011;64847;45.778;12.802;2023-11-19T13:23:00;3.37;;;3.13;;
76115;SDS011;64847;45.778;12.802;2023-11-19T13:25:27;3.90;;;3.50;;
76115;SDS011;64847;45.778;12.802;2023-11-19T13:27:53;3.83;;;3.53;;
76115;SDS011;64847;45.778;12.802;2023-11-19T13:30:19;3.60;;;3.30;;
76115;SDS011;64847;45.778;12.802;2023-11-19T13:32:46;3.60;;;3.30;;
76115;SDS011;64847;45.778;12.802;2023-11-19T13:35:12;4.07;;;3.67;;
76115;SDS011;64847;45.778;12.802;2023-11-19T13:37:38;3.93;;;3.57;;
76115;SDS011;64847;45.778;12.802;2023-11-19T13:40:04;4.37;;;3.97;;
76115;SDS011;64847;45.778;12.802;2023-11-19T13:42:30;3.83;;;3.53;;
76115;SDS011;64847;45.778;12.802;2023-11-19T13:44:56;4.27;;;3.93;;
76115;SDS011;64847;45.778;12.802;2023-11-19T13:47:21;3.17;;;2.97;;
76115;SDS011;64847;45.778;12.802;2023-11-19T13:49:47;3.63;;;3.33;;
76115;SDS011;64847;45.778;12.802;2023-11-19T13:52:12;3.17;;;2.97;;
76115;SDS011;64847;45.778;12.802;2023-11-19T13:54:38;3.70;;;3.40;;
76115;SDS011;64847;45.778;12.802;2023-11-19T13:57:03;3.73;;;3.37;;
76115;SDS011;64847;45.778;12.802;2023-11-19T13:59:29;3.40;;;3.10;;
76115;SDS011;64847;45.778;12.802;2023-11-19T14:01:57;3.00;;;2.80;;
76115;SDS011;64847;45.778;12.802;2023-11-19T14:04:22;3.77;;;3.47;;
76115;SDS011;64847;45.778;12.802;2023-11-19T14:06:48;2.95;;;2.75;;
76115;SDS011;64847;45.778;12.802;2023-11-19T14:09:13;3.73;;;3.43;;
76115;SDS011;64847;45.778;12.802;2023-11-19T14:11:39;3.38;;;3.17;;
76115;SDS011;64847;45.778;12.802;2023-11-19T14:14:05;3.95;;;3.63;;
76115;SDS011;64847;45.778;12.802;2023-11-19T14:16:30;4.20;;;3.90;;
76115;SDS011;64847;45.778;12.802;2023-11-19T14:18:57;4.22;;;3.92;;
76115;SDS011;64847;45.778;12.802;2023-11-19T14:21:22;4.13;;;3.83;;
76115;SDS011;64847;45.778;12.802;2023-11-19T14:23:48;4.07;;;3.78;;
76115;SDS011;64847;45.778;12.802;2023-11-19T14:26:13;3.90;;;3.60;;
76115;SDS011;64847;45.778;12.802;2023-11-19T14:28:39;3.67;;;3.37;;
76115;SDS011;64847;45.778;12.802;2023-11-19T14:31:04;4.60;;;4.20;;
76115;SDS011;64847;45.778;12.802;2023-11-19T14:33:30;3.80;;;3.50;;
76115;SDS011;64847;45.778;12.802;2023-11-19T14:35:55;4.33;;;3.93;;
76115;SDS011;64847;45.778;12.802;2023-11-19T14:38:21;4.47;;;4.07;;
76115;SDS011;64847;45.778;12.802;2023-11-19T14:40:46;5.03;;;4.53;;
76115;SDS011;64847;45.778;12.802;2023-11-19T14:43:13;4.33;;;3.97;;
76115;SDS011;64847;45.778;12.802;2023-11-19T14:45:40;4.43;;;4.00;;
76115;SDS011;64847;45.778;12.802;2023-11-19T14:48:05;4.00;;;3.70;;
76115;SDS011;64847;45.778;12.802;2023-11-19T14:50:31;4.47;;;4.07;;
76115;SDS011;64847;45.778;12.802;2023-11-19T14:52:56;4.27;;;3.97;;
76115;SDS011;64847;45.778;12.802;2023-11-19T14:55:22;4.73;;;4.33;;
76115;SDS011;64847;45.778;12.802;2023-11-19T14:57:47;4.77;;;4.07;;